Time;durP1;ratioP1;P1;durP2;ratioP2;P2;SDS_P1;SDS_P2;PMS_P1;PMS_P2;Temp;Humidity;BMP_temperature;BMP_pressure;BME280_temperature;BME280_humidity;BME280_pressure;Samples;Min_cycle;Max_cycle;Signal;HPM_P1;HPM_P2
2021/03/04 00:00:13;;;;;;;41.90;28.80;;;;;;;6.02;68.10;99437.84;123765;1102;64895;-79
2021/03/04 00:03:02;;;;;;;42.87;29.73;;;;;;;5.98;68.25;99441.55;123763;1102;64902;-79
2021/03/04 00:05:29;;;;;;;44.70;30.17;;;;;;;5.97;67.98;99431.02;123822;1102;64930;-78
2021/03/04 00:07:56;;;;;;;44.30;29.57;;;;;;;5.94;68.50;99430.21;123734;1102;65382;-78
2021/03/04 00:10:23;;;;;;;45.00;30.13;;;;;;;5.96;68.41;99421.37;123792;1102;65107;-78
2021/03/04 00:12:50;;;;;;;45.65;29.15;;;;;;;5.96;69.01;99432.81;123786;1102;65251;-78
2021/03/04 00:15:19;;;;;;;44.73;29.20;;;;;;;5.93;68.53;99423.21;123762;1101;64936;-78
2021/03/04 00:17:47;;;;;;;48.70;30.63;;;;;;;5.89;68.47;99421.56;123833;1102;64933;-79
2021/03/04 00:20:20;;;;;;;43.90;28.70;;;;;;;5.83;68.55;99421.83;123819;1102;65065;-79
2021/03/04 00:22:47;;;;;;;44.80;28.95;;;;;;;5.81;69.20;99422.81;123872;1102;65023;-79
2021/03/04 00:25:14;;;;;;;50.17;29.80;;;;;;;5.81;69.35;99421.02;123841;1102;64924;-79
2021/03/04 00:27:43;;;;;;;45.67;29.60;;;;;;;5.80;69.09;99413.17;123898;1102;64898;-78
2021/03/04 00:30:11;;;;;;;43.97;29.33;;;;;;;5.77;69.31;99402.72;123837;1102;64891;-79
2021/03/04 00:32:37;;;;;;;46.23;31.13;;;;;;;5.75;68.79;99404.56;123787;1102;64959;-80
2021/03/04 00:35:06;;;;;;;44.63;30.07;;;;;;;5.70;69.08;99397.66;123859;1102;65346;-79
2021/03/04 00:37:33;;;;;;;46.13;28.90;;;;;;;5.66;68.97;99400.48;123852;1101;64933;-79
2021/03/04 00:40:00;;;;;;;45.65;29.45;;;;;;;5.61;69.33;99391.87;123822;1102;64882;-79
2021/03/04 00:42:26;;;;;;;42.77;28.30;;;;;;;5.60;69.38;99395.45;123844;1102;64898;-78
2021/03/04 00:44:53;;;;;;;41.30;26.37;;;;;;;5.59;69.55;99394.59;123400;1102;64931;-78
2021/03/04 00:47:19;;;;;;;44.20;29.27;;;;;;;5.56;69.32;99388.59;123435;1102;65028;-78
2021/03/04 00:49:45;;;;;;;46.73;31.40;;;;;;;5.56;69.56;99388.59;123829;1102;64889;-78
2021/03/04 00:52:12;;;;;;;44.50;29.83;;;;;;;5.53;69.87;99384.28;123839;1102;64911;-78
2021/03/04 00:54:38;;;;;;;46.90;30.27;;;;;;;5.53;69.75;99383.39;123468;1102;65015;-79
2021/03/04 00:57:04;;;;;;;50.40;30.77;;;;;;;5.50;69.74;99379.09;123812;1102;64934;-78
2021/03/04 00:59:31;;;;;;;47.03;30.17;;;;;;;5.45;69.96;99358.15;123450;1102;64973;-78
2021/03/04 01:01:57;;;;;;;51.13;32.47;;;;;;;5.41;69.73;99358.33;123822;1102;64896;-79
2021/03/04 01:04:23;;;;;;;52.85;31.10;;;;;;;5.38;70.02;99361.95;123469;1102;64882;-78
2021/03/04 01:06:49;;;;;;;39.67;26.63;;;;;;;5.36;70.45;99363.78;123803;1102;64907;-78
2021/03/04 01:09:16;;;;;;;45.63;30.00;;;;;;;5.37;70.30;99362.89;123613;1102;64963;-79
2021/03/04 01:11:42;;;;;;;41.57;28.47;;;;;;;5.35;70.15;99362.08;123818;1102;64882;-79
2021/03/04 01:14:09;;;;;;;54.57;32.33;;;;;;;5.34;70.29;99355.05;123842;1102;64963;-79
2021/03/04 01:16:35;;;;;;;49.83;31.27;;;;;;;5.30;70.34;99345.55;123875;1102;64896;-79
2021/03/04 01:19:03;;;;;;;51.67;32.07;;;;;;;5.27;70.39;99343.03;123797;1102;64886;-79
2021/03/04 01:21:29;;;;;;;46.70;29.17;;;;;;;5.25;70.71;99345.72;123796;1102;65033;-79
2021/03/04 01:23:56;;;;;;;50.10;30.87;;;;;;;5.25;70.83;99339.58;123814;1102;64889;-78
2021/03/04 01:26:22;;;;;;;46.70;31.93;;;;;;;5.22;70.54;99332.63;123453;1102;64924;-78
2021/03/04 01:28:51;;;;;;;46.57;32.23;;;;;;;5.21;70.70;99335.33;123449;1102;64969;-79
2021/03/04 01:31:18;;;;;;;51.35;31.60;;;;;;;5.22;70.88;99329.98;123800;1102;65263;-79
2021/03/04 01:33:44;;;;;;;48.83;31.83;;;;;;;5.19;70.92;99323.98;123817;1102;64984;-80
2021/03/04 01:36:10;;;;;;;45.13;30.20;;;;;;;5.17;70.92;99317.89;123775;1101;64862;-79
2021/03/04 01:38:37;;;;;;;47.17;30.60;;;;;;;5.17;71.11;99317.89;123795;1102;64889;-79
2021/03/04 01:41:03;;;;;;;51.85;33.40;;;;;;;5.19;71.49;99319.55;123803;1102;64831;-79
2021/03/04 01:43:29;;;;;;;43.47;29.93;;;;;;;5.25;71.20;99308.72;123730;1102;65042;-78
2021/03/04 01:45:56;;;;;;;47.30;30.63;;;;;;;5.29;70.96;99301.52;123802;1102;64908;-79
2021/03/04 01:48:22;;;;;;;50.10;32.87;;;;;;;5.33;71.16;99299.64;123420;1102;64962;-78
2021/03/04 01:50:49;;;;;;;44.83;30.53;;;;;;;5.32;71.35;99298.78;123809;1102;64902;-79
2021/03/04 01:53:16;;;;;;;51.70;31.95;;;;;;;5.32;71.25;99304.06;123390;1102;64975;-79
2021/03/04 01:55:44;;;;;;;45.77;29.27;;;;;;;5.30;71.31;99303.27;123799;1102;64985;-78
2021/03/04 01:58:10;;;;;;;46.60;30.40;;;;;;;5.32;71.26;99295.25;123819;1102;64992;-79
2021/03/04 02:00:37;;;;;;;43.53;28.97;;;;;;;5.36;71.19;99286.30;123412;1102;64972;-80
2021/03/04 02:03:03;;;;;;;42.50;29.03;;;;;;;5.37;71.33;99293.28;123790;1102;64837;-79
2021/03/04 02:05:30;;;;;;;44.17;31.83;;;;;;;5.38;71.33;99281.81;123406;1102;64882;-81
2021/03/04 02:07:59;;;;;;;48.13;32.63;;;;;;;5.36;71.28;99276.58;123806;1102;64867;-79
2021/03/04 02:10:46;;;;;;;48.33;30.27;;;;;;;5.33;71.02;99278.50;123434;1102;64843;-79
2021/03/04 02:13:23;;;;;;;40.63;26.70;;;;;;;5.29;71.35;99272.45;123784;1102;64886;-78
2021/03/04 02:15:52;;;;;;;48.20;29.93;;;;;;;5.26;71.75;99267.30;123784;1102;64888;-78
2021/03/04 02:18:21;;;;;;;49.23;31.73;;;;;;;5.25;71.46;99257.67;123741;1102;64945;-78
2021/03/04 02:21:03;;;;;;;42.95;29.82;;;;;;;5.23;71.36;99264.78;123828;1102;64860;-81
2021/03/04 02:23:48;;;;;;;43.47;29.00;;;;;;;5.22;71.73;99253.37;124200;1102;64923;-79
2021/03/04 02:26:44;;;;;;;48.83;29.60;;;;;;;5.22;71.55;99249.88;126399;1102;64816;-77
2021/03/04 02:29:18;;;;;;;50.73;31.40;;;;;;;5.21;71.77;99243.73;125168;1102;64840;-77
2021/03/04 02:31:46;;;;;;;49.77;32.23;;;;;;;5.21;71.57;99248.13;123756;1102;64857;-80
2021/03/04 02:34:13;;;;;;;44.70;29.43;;;;;;;5.20;71.88;99241.99;123790;1102;64883;-80
2021/03/04 02:36:42;;;;;;;47.07;29.77;;;;;;;5.21;71.93;99240.20;123821;1102;65345;-78
2021/03/04 02:39:10;;;;;;;53.38;32.75;;;;;;;5.20;71.66;99241.99;123795;1102;64882;-79
2021/03/04 02:41:39;;;;;;;47.10;32.07;;;;;;;5.20;71.35;99234.06;123798;1102;64838;-78
2021/03/04 02:44:08;;;;;;;48.10;30.03;;;;;;;5.23;71.64;99233.08;123797;1102;64875;-77
2021/03/04 02:46:36;;;;;;;45.57;29.07;;;;;;;5.22;71.64;99226.09;123792;1102;64866;-78
2021/03/04 02:49:05;;;;;;;42.70;28.60;;;;;;;5.21;71.70;99227.88;123852;1102;64885;-79
2021/03/04 02:51:34;;;;;;;43.33;28.37;;;;;;;5.20;71.48;99226.14;123783;1102;64891;-80
2021/03/04 02:54:01;;;;;;;46.03;31.33;;;;;;;5.15;71.44;99220.19;123510;1102;64831;-79
2021/03/04 02:56:29;;;;;;;46.03;29.20;;;;;;;5.09;71.84;99211.67;123826;1102;64832;-78
2021/03/04 02:59:01;;;;;;;45.93;29.77;;;;;;;5.04;71.74;99212.70;123805;1102;64956;-78
2021/03/04 03:01:30;;;;;;;48.23;29.23;;;;;;;5.01;72.07;99211.98;123811;1102;64905;-80
2021/03/04 03:03:57;;;;;;;47.63;28.33;;;;;;;4.97;71.97;99218.30;123794;1102;64880;-79
2021/03/04 03:06:27;;;;;;;49.23;31.77;;;;;;;4.94;71.93;99216.64;123508;1102;65292;-79
2021/03/04 03:08:54;;;;;;;;;;;;;;;4.90;72.06;99219.45;123855;1101;64825;-77
2021/03/04 03:11:22;;;;;;;46.67;29.80;;;;;;;4.85;71.79;99217.02;123753;1102;64927;-77
2021/03/04 03:13:54;;;;;;;46.80;31.97;;;;;;;4.82;71.75;99215.36;123759;1102;65110;-79
2021/03/04 03:16:21;;;;;;;47.50;31.60;;;;;;;4.79;71.74;99211.97;123812;1102;64911;-79
2021/03/04 03:18:48;;;;;;;47.00;30.50;;;;;;;4.72;71.85;99202.59;123444;1102;64953;-78
2021/03/04 03:21:14;;;;;;;45.37;30.03;;;;;;;4.67;72.02;99193.99;123770;1102;64886;-78
2021/03/04 03:23:40;;;;;;;43.47;28.13;;;;;;;4.64;72.01;99197.61;123729;1102;65363;-79
2021/03/04 03:26:07;;;;;;;44.23;28.83;;;;;;;4.62;71.93;99188.89;123808;1102;64990;-79
2021/03/04 03:28:33;;;;;;;44.60;29.20;;;;;;;4.61;72.12;99179.27;123411;1102;64907;-79
2021/03/04 03:31:00;;;;;;;43.60;28.43;;;;;;;4.62;72.13;99180.97;123778;1102;64878;-79
2021/03/04 03:33:28;;;;;;;41.53;27.83;;;;;;;4.61;72.00;99184.55;123804;1101;64931;-79
2021/03/04 03:35:55;;;;;;;45.60;29.97;;;;;;;4.61;72.06;99190.67;123813;1101;64940;-80
2021/03/04 03:38:22;;;;;;;48.43;30.77;;;;;;;4.60;71.70;99181.02;123425;1105;64963;-79
2021/03/04 03:40:52;;;;;;;98.30;47.45;;;;;;;4.58;72.19;99190.80;123877;1102;64905;-78
2021/03/04 03:43:22;;;;;;;95.95;46.65;;;;;;;4.57;72.11;99180.29;123799;1102;64905;-79
2021/03/04 03:45:51;;;;;;;56.77;33.38;;;;;;;4.56;72.30;99182.08;123857;1102;64899;-79
2021/03/04 03:48:21;;;;;;;45.10;28.05;;;;;;;4.57;71.86;99185.57;123835;1101;65094;-78
2021/03/04 03:50:56;;;;;;;43.27;29.27;;;;;;;4.59;72.17;99174.03;123486;1102;64956;-78
2021/03/04 03:53:25;;;;;;;44.47;27.27;;;;;;;4.59;72.18;99166.11;123861;1102;64904;-79
2021/03/04 03:55:54;;;;;;;43.40;28.77;;;;;;;4.59;72.00;99176.67;123821;1102;64927;-79
2021/03/04 03:58:23;;;;;;;44.80;28.27;;;;;;;4.59;71.79;99165.26;123567;1105;64994;-77
2021/03/04 04:00:54;;;;;;;47.50;29.95;;;;;;;4.59;72.15;99173.17;123849;1102;64924;-78
2021/03/04 04:03:21;;;;;;;43.07;27.67;;;;;;;4.57;71.91;99170.59;123847;1102;64918;-79
2021/03/04 04:05:48;;;;;;;43.70;28.00;;;;;;;4.53;71.74;99157.56;123850;1102;64869;-79
2021/03/04 04:08:17;;;;;;;44.03;28.87;;;;;;;4.51;71.67;99155.00;123746;1102;64911;-79
2021/03/04 04:10:46;;;;;;;43.07;26.10;;;;;;;4.52;72.12;99156.71;123833;1102;64891;-79
2021/03/04 04:13:16;;;;;;;42.10;27.17;;;;;;;4.49;71.66;99154.20;123844;1102;64905;-80
2021/03/04 04:15:43;;;;;;;45.53;28.53;;;;;;;4.49;71.96;99145.43;123755;1102;65026;-79
2021/03/04 04:18:10;;;;;;;41.93;27.87;;;;;;;4.46;71.47;99141.13;123771;1102;64902;-79
2021/03/04 04:20:38;;;;;;;42.20;27.53;;;;;;;4.43;71.58;99140.41;123777;1102;65345;-79
2021/03/04 04:23:06;;;;;;;40.90;27.33;;;;;;;4.40;71.36;99142.23;123847;1102;64889;-78
2021/03/04 04:25:41;;;;;;;40.93;27.03;;;;;;;4.36;71.70;99132.70;123833;1102;64914;-79
2021/03/04 04:28:08;;;;;;;44.70;30.27;;;;;;;4.32;71.82;99122.36;123825;1102;64934;-79
2021/03/04 04:30:34;;;;;;;48.50;30.97;;;;;;;4.29;71.77;99127.73;123423;1102;64917;-79
2021/03/04 04:33:00;;;;;;;47.48;30.92;;;;;;;4.25;72.09;99124.37;123793;1101;64898;-79
2021/03/04 04:35:26;;;;;;;49.47;30.07;;;;;;;4.25;71.60;99127.00;123442;1102;65011;-79
2021/03/04 04:37:53;;;;;;;47.83;31.27;;;;;;;4.25;71.68;99128.79;123760;1102;65007;-79
2021/03/04 04:40:20;;;;;;;48.43;30.33;;;;;;;4.23;71.81;99130.63;123791;1102;64971;-79
2021/03/04 04:42:46;;;;;;;47.37;29.00;;;;;;;4.20;72.10;99125.47;123410;1102;64973;-79
2021/03/04 04:45:13;;;;;;;45.57;30.03;;;;;;;4.17;71.71;99122.02;123439;1102;64914;-78
2021/03/04 04:47:39;;;;;;;43.23;28.93;;;;;;;4.14;71.86;99113.38;123763;1102;64934;-77
2021/03/04 04:50:06;;;;;;;41.73;29.25;;;;;;;4.10;71.88;99114.41;123784;1102;64885;-79
2021/03/04 04:52:34;;;;;;;47.90;33.70;;;;;;;4.05;71.67;99111.94;123868;1102;64943;-78
2021/03/04 04:55:00;;;;;;;50.00;33.00;;;;;;;4.01;72.09;99112.99;123811;1102;64997;-78
2021/03/04 04:57:29;;;;;;;81.40;43.53;;;;;;;4.02;71.70;99100.66;123407;1101;65292;-79
2021/03/04 04:59:56;;;;;;;60.97;35.63;;;;;;;4.00;71.87;99103.34;123778;1102;64940;-78
2021/03/04 05:02:22;;;;;;;49.27;31.43;;;;;;;4.01;71.88;99098.95;123767;1102;64921;-78
2021/03/04 05:04:48;;;;;;;45.60;29.53;;;;;;;3.98;72.02;99096.41;123767;1102;64930;-78
2021/03/04 05:07:15;;;;;;;43.97;27.90;;;;;;;3.95;71.70;99089.51;123397;1102;64942;-79
2021/03/04 05:09:41;;;;;;;47.87;30.37;;;;;;;3.91;72.35;99088.74;123418;1102;64853;-79
2021/03/04 05:12:08;;;;;;;48.37;29.70;;;;;;;3.86;72.04;99089.84;123753;1102;64880;-78
2021/03/04 05:14:34;;;;;;;44.50;30.43;;;;;;;3.80;71.96;99092.72;123751;1102;64889;-79
2021/03/04 05:17:01;;;;;;;51.80;30.60;;;;;;;3.75;72.01;99090.25;123773;1102;64905;-80
2021/03/04 05:19:27;;;;;;;67.63;37.23;;;;;;;3.68;72.28;99092.24;123781;1102;64991;-79
2021/03/04 05:21:54;;;;;;;51.53;30.70;;;;;;;3.65;72.41;99099.41;123378;1102;66111;-79
2021/03/04 05:24:20;;;;;;;47.47;28.83;;;;;;;3.68;72.74;99099.30;123764;1102;65221;-78
2021/03/04 05:26:47;;;;;;;46.30;27.33;;;;;;;3.71;72.66;99101.81;123755;1102;65048;-79
2021/03/04 05:29:13;;;;;;;40.33;27.00;;;;;;;3.77;72.67;99106.02;123776;1102;64905;-79
2021/03/04 05:31:39;;;;;;;39.27;23.50;;;;;;;3.84;73.22;99095.16;123723;1102;64914;-78
2021/03/04 05:34:06;;;;;;;41.73;28.57;;;;;;;3.92;72.80;99103.66;123804;1102;64882;-79
2021/03/04 05:36:32;;;;;;;44.10;28.33;;;;;;;3.98;72.75;99099.05;123756;1102;64934;-79
2021/03/04 05:38:59;;;;;;;44.50;28.50;;;;;;;4.03;73.19;99097.98;123368;1102;65001;-78
2021/03/04 05:41:26;;;;;;;53.43;31.57;;;;;;;4.10;72.69;99093.31;123806;1102;64937;-79
2021/03/04 05:43:52;;;;;;;48.03;28.80;;;;;;;4.24;72.35;99104.19;123774;1102;64919;-78
2021/03/04 05:46:21;;;;;;;53.67;32.20;;;;;;;4.35;72.23;99104.63;123797;1102;64875;-79
2021/03/04 05:48:50;;;;;;;70.17;38.97;;;;;;;4.46;72.49;99111.25;123842;1102;64831;-79
2021/03/04 05:51:25;;;;;;;62.47;35.30;;;;;;;4.58;72.44;99111.62;123773;1102;64981;-78
2021/03/04 05:53:57;;;;;;;56.70;34.03;;;;;;;4.70;72.01;99098.83;123790;1102;65504;-79
2021/03/04 05:56:24;;;;;;;52.40;31.05;;;;;;;4.83;72.46;99094.75;123784;1102;64982;-79
2021/03/04 05:58:52;;;;;;;49.57;32.20;;;;;;;4.97;71.89;99100.30;123792;1102;64930;-79
2021/03/04 06:01:19;;;;;;;47.90;29.17;;;;;;;5.09;72.09;99085.73;123789;1102;64981;-79
2021/03/04 06:03:47;;;;;;;44.50;26.70;;;;;;;5.23;72.21;99088.61;123430;1102;65451;-79
2021/03/04 06:06:15;;;;;;;54.87;32.93;;;;;;;5.33;72.06;99089.08;123811;1102;64953;-79
2021/03/04 06:08:41;;;;;;;51.77;31.37;;;;;;;5.44;72.03;99078.88;123791;1102;65395;-79
2021/03/04 06:11:07;;;;;;;49.33;32.00;;;;;;;5.56;71.91;99074.84;123797;1102;65007;-79
2021/03/04 06:13:34;;;;;;;46.83;30.53;;;;;;;5.65;71.71;99076.20;123816;1102;64914;-78
2021/03/04 06:16:01;;;;;;;46.43;31.47;;;;;;;5.72;71.43;99072.36;123405;1102;65073;-77
2021/03/04 06:18:41;;;;;;;49.90;31.60;;;;;;;5.80;71.37;99072.02;123782;1102;64857;-79
2021/03/04 06:21:24;;;;;;;;;;;;;;;5.83;71.48;99078.01;123858;1102;64912;-78
2021/03/04 06:23:52;;;;;;;50.60;30.73;;;;;;;5.88;71.10;99061.93;123818;1102;64981;-79
2021/03/04 06:26:38;;;;;;;45.33;30.97;;;;;;;5.91;71.29;99057.34;123470;1102;64891;-79
2021/03/04 06:29:11;;;;;;;50.23;32.47;;;;;;;5.98;70.99;99062.38;123815;1102;65007;-80
2021/03/04 06:31:38;;;;;;;57.97;33.60;;;;;;;6.02;71.05;99058.66;123813;1102;65053;-78
2021/03/04 06:34:16;;;;;;;56.30;36.33;;;;;;;6.05;70.97;99067.30;123741;1101;64901;-79
2021/03/04 06:37:12;;;;;;;50.70;35.17;;;;;;;6.10;71.00;99073.23;123774;1102;64908;-79
2021/03/04 06:39:44;;;;;;;49.87;33.80;;;;;;;6.13;70.77;99066.94;123698;1102;64832;-78
2021/03/04 06:42:13;;;;;;;51.07;31.70;;;;;;;6.17;70.76;99071.17;123704;1102;65483;-79
2021/03/04 06:44:44;;;;;;;54.43;35.73;;;;;;;6.23;70.65;99076.16;123413;1103;65006;-78
2021/03/04 06:47:18;;;;;;;48.47;32.20;;;;;;;6.28;70.29;99074.15;123790;1102;65282;-78
2021/03/04 06:49:45;;;;;;;51.20;33.40;;;;;;;6.34;70.70;99067.70;123832;1101;64905;-78
2021/03/04 06:52:29;;;;;;;52.80;35.65;;;;;;;6.40;70.43;99071.83;123528;1102;64972;-78
2021/03/04 06:55:13;;;;;;;51.30;33.45;;;;;;;6.45;70.28;99076.00;123762;1102;65036;-78
2021/03/04 06:57:40;;;;;;;55.55;37.00;;;;;;;6.51;70.31;99064.25;123729;1102;64976;-79
2021/03/04 07:00:19;;;;;;;63.23;40.17;;;;;;;6.58;70.12;99062.98;123770;1102;64873;-79
2021/03/04 07:02:56;;;;;;;54.17;37.67;;;;;;;6.65;70.18;99060.91;123821;1102;65007;-79
2021/03/04 07:05:26;;;;;;;53.97;35.83;;;;;;;6.70;70.22;99064.19;123761;1102;64905;-79
2021/03/04 07:07:57;;;;;;;54.03;35.73;;;;;;;6.75;69.88;99065.66;123816;1102;65168;-78
2021/03/04 07:10:27;;;;;;;52.53;34.23;;;;;;;6.81;69.96;99070.64;123831;1102;65030;-78
2021/03/04 07:12:55;;;;;;;54.60;34.43;;;;;;;6.87;69.80;99072.13;123808;1102;64905;-79
2021/03/04 07:15:22;;;;;;;48.47;32.03;;;;;;;6.93;69.76;99071.83;123801;1101;64861;-79
2021/03/04 07:17:50;;;;;;;50.70;34.80;;;;;;;6.98;69.19;99067.16;123781;1102;64908;-79
2021/03/04 07:20:19;;;;;;;52.23;34.77;;;;;;;7.04;69.30;99056.23;123441;1102;64962;-78
2021/03/04 07:22:48;;;;;;;50.27;34.40;;;;;;;7.12;69.08;99055.84;123845;1102;65008;-79
2021/03/04 07:25:15;;;;;;;52.13;34.93;;;;;;;7.20;68.96;99066.05;123804;1102;64978;-79
2021/03/04 07:27:42;;;;;;;47.93;32.60;;;;;;;7.30;68.84;99067.28;123795;1102;64950;-79
2021/03/04 07:30:11;;;;;;;45.60;33.40;;;;;;;7.45;68.86;99073.55;123730;1102;64887;-79
2021/03/04 07:32:38;;;;;;;51.63;35.17;;;;;;;7.63;68.10;99063.77;123440;1102;64992;-79
2021/03/04 07:35:11;;;;;;;48.63;32.87;;;;;;;7.80;68.26;99062.87;123772;1102;64907;-79
2021/03/04 07:37:42;;;;;;;53.83;35.17;;;;;;;7.96;67.51;99050.47;123422;1102;65004;-79
2021/03/04 07:40:12;;;;;;;48.20;33.30;;;;;;;8.18;67.27;99055.42;123786;1102;64863;-79
2021/03/04 07:42:38;;;;;;;;;;;;;;;8.36;66.94;99057.04;123887;1102;64987;-78
2021/03/04 07:45:18;;;;;;;51.57;35.13;;;;;;;8.57;66.47;99049.67;123780;1102;64928;-78
2021/03/04 07:47:45;;;;;;;49.97;34.83;;;;;;;8.72;66.67;99055.06;123768;1102;64905;-78
2021/03/04 07:50:20;;;;;;;52.07;35.73;;;;;;;8.69;65.03;99045.47;123404;1102;64886;-78
2021/03/04 07:52:46;;;;;;;50.53;33.50;;;;;;;8.67;65.94;99036.72;123811;1101;64895;-79
2021/03/04 07:55:15;;;;;;;51.80;35.85;;;;;;;8.69;65.59;99029.52;123690;1102;64882;-79
2021/03/04 07:57:46;;;;;;;48.67;34.10;;;;;;;8.67;64.97;99023.44;123812;1102;64885;-80
2021/03/04 08:00:16;;;;;;;47.47;33.37;;;;;;;8.64;65.29;99017.46;123797;1102;64908;-79
2021/03/04 08:02:43;;;;;;;51.17;35.93;;;;;;;8.61;65.77;99026.47;123431;1102;64972;-78
2021/03/04 08:05:13;;;;;;;51.60;35.47;;;;;;;8.58;66.09;99015.99;123796;1102;64908;-79
2021/03/04 08:07:49;;;;;;;54.30;37.20;;;;;;;8.53;65.82;99008.31;123403;1102;64911;-79
2021/03/04 08:10:17;;;;;;;53.20;35.17;;;;;;;8.55;65.52;99021.48;123726;1102;64879;-78
2021/03/04 08:12:47;;;;;;;54.45;36.95;;;;;;;8.54;65.76;99019.79;123826;1102;64956;-79
2021/03/04 08:15:15;;;;;;;48.78;34.85;;;;;;;8.54;65.17;99017.14;123753;1102;64934;-79
2021/03/04 08:17:41;;;;;;;48.47;33.83;;;;;;;8.61;65.24;99009.64;123451;1102;65050;-78
2021/03/04 08:20:09;;;;;;;50.20;33.50;;;;;;;8.68;65.14;99014.52;123764;1102;64908;-79
2021/03/04 08:22:43;;;;;;;52.07;34.67;;;;;;;8.76;65.02;99014.06;123427;1101;64931;-79
2021/03/04 08:25:13;;;;;;;53.13;35.17;;;;;;;8.77;65.52;99013.98;123784;1102;64878;-79
2021/03/04 08:27:41;;;;;;;59.27;39.07;;;;;;;8.76;64.70;99022.88;123817;1102;64895;-79
2021/03/04 08:30:09;;;;;;;50.27;35.60;;;;;;;8.74;65.16;99024.80;123805;1101;64905;-78
2021/03/04 08:32:37;;;;;;;52.53;34.40;;;;;;;8.81;65.00;99024.42;123800;1102;65005;-79
2021/03/04 08:35:16;;;;;;;45.90;33.63;;;;;;;8.92;64.65;99019.32;123771;1102;65055;-78
2021/03/04 08:37:42;;;;;;;47.63;33.37;;;;;;;9.10;64.68;99015.55;123787;1102;65058;-79
2021/03/04 08:40:08;;;;;;;44.87;31.53;;;;;;;9.27;63.83;99005.69;123740;1102;64924;-79
2021/03/04 08:42:35;;;;;;;47.20;33.00;;;;;;;9.40;64.18;99011.95;123752;1102;64981;-78
2021/03/04 08:45:02;;;;;;;41.73;30.93;;;;;;;9.56;63.40;99014.55;123424;1102;65261;-77
2021/03/04 08:47:28;;;;;;;49.90;34.87;;;;;;;9.58;62.53;99007.30;123781;1102;65036;-79
2021/03/04 08:49:59;;;;;;;47.77;32.40;;;;;;;9.67;62.52;99017.39;123753;1102;65260;-79
2021/03/04 08:52:27;;;;;;;53.87;37.00;;;;;;;9.82;63.17;99012.88;123748;1102;64899;-80
2021/03/04 08:54:56;;;;;;;51.00;35.50;;;;;;;10.02;62.81;99017.80;123841;1102;64899;-79
2021/03/04 08:57:28;;;;;;;45.40;33.93;;;;;;;10.13;61.46;99003.78;123426;1102;64895;-79
2021/03/04 09:00:09;;;;;;;49.63;37.57;;;;;;;10.21;61.27;98996.14;123710;1102;65068;-78
2021/03/04 09:02:37;;;;;;;48.00;34.10;;;;;;;10.25;62.21;98997.67;123835;1101;65036;-79
2021/03/04 09:05:08;;;;;;;49.55;36.05;;;;;;;10.27;61.10;98994.92;123767;1102;64930;-79
2021/03/04 09:07:44;;;;;;;52.17;36.30;;;;;;;10.23;60.61;98998.72;123874;1102;64885;-79
2021/03/04 09:10:12;;;;;;;52.00;37.57;;;;;;;10.22;61.21;98981.89;123802;1101;64930;-78
2021/03/04 09:12:46;;;;;;;46.80;35.93;;;;;;;10.25;61.46;98988.83;123790;1102;64879;-79
2021/03/04 09:15:16;;;;;;;62.67;44.23;;;;;;;10.27;61.45;98986.92;123756;1101;65063;-78
2021/03/04 09:17:44;;;;;;;52.00;35.83;;;;;;;10.30;60.54;98992.92;123763;1102;64841;-79
2021/03/04 09:20:15;;;;;;;51.50;36.60;;;;;;;10.32;60.53;98987.48;123785;1102;64943;-79
2021/03/04 09:22:43;;;;;;;48.30;35.03;;;;;;;10.37;60.95;98987.19;123801;1102;65364;-77
2021/03/04 09:25:20;;;;;;;52.77;36.53;;;;;;;10.39;60.31;98985.28;123755;1102;64832;-79
2021/03/04 09:27:47;;;;;;;49.83;36.47;;;;;;;10.42;61.27;98977.92;123803;1101;64888;-78
2021/03/04 09:30:24;;;;;;;48.83;34.73;;;;;;;10.48;60.74;98977.53;123756;1101;64882;-79
2021/03/04 09:32:51;;;;;;;52.73;36.90;;;;;;;10.47;60.76;98989.13;123861;1102;64905;-79
2021/03/04 09:35:17;;;;;;;48.90;37.00;;;;;;;10.46;60.41;98979.45;123775;1102;65297;-77
2021/03/04 09:37:43;;;;;;;51.57;38.03;;;;;;;10.45;60.97;98976.87;123821;1102;64936;-78
2021/03/04 09:40:21;;;;;;;55.17;39.17;;;;;;;10.44;60.83;98969.84;123767;1102;65298;-78
2021/03/04 09:42:47;;;;;;;59.77;41.90;;;;;;;10.38;60.36;98971.11;123794;1101;64934;-79
2021/03/04 09:45:14;;;;;;;52.97;38.60;;;;;;;10.41;60.24;98980.71;123803;1102;64914;-79
2021/03/04 09:47:49;;;;;;;55.03;40.50;;;;;;;10.51;61.42;98973.81;123835;1102;64828;-79
2021/03/04 09:50:21;;;;;;;56.50;41.53;;;;;;;10.65;60.93;98967.55;123817;1102;65035;-79
2021/03/04 09:53:02;;;;;;;55.30;39.73;;;;;;;10.88;61.14;98964.17;123783;1102;64883;-79
2021/03/04 09:55:40;;;;;;;55.50;40.73;;;;;;;11.08;60.15;98960.11;123450;1102;64913;-79
2021/03/04 09:58:20;;;;;;;56.70;42.40;;;;;;;11.21;59.88;98960.11;123771;1102;64886;-79
2021/03/04 10:00:56;;;;;;;61.30;42.05;;;;;;;11.37;60.11;98957.22;123790;1102;64902;-78
2021/03/04 10:03:32;;;;;;;57.83;43.17;;;;;;;11.47;59.68;98960.09;123717;1102;65392;-79
2021/03/04 10:05:59;;;;;;;58.10;40.47;;;;;;;11.54;58.99;98948.87;123457;1102;64899;-77
2021/03/04 10:08:35;;;;;;;57.50;43.57;;;;;;;11.58;59.81;98942.33;123814;1102;64882;-79
2021/03/04 10:11:02;;;;;;;56.13;39.60;;;;;;;11.55;58.52;98957.73;123788;1102;64934;-78
2021/03/04 10:13:30;;;;;;;62.47;44.57;;;;;;;11.46;58.88;98958.40;123735;1102;64872;-78
2021/03/04 10:16:08;;;;;;;62.23;45.67;;;;;;;11.38;58.83;98954.45;123757;1101;64854;-77
2021/03/04 10:18:35;;;;;;;62.80;46.00;;;;;;;11.34;58.35;98949.44;123739;1101;64978;-78
2021/03/04 10:21:02;;;;;;;63.67;45.33;;;;;;;11.39;58.73;98940.13;123389;1102;64933;-77
2021/03/04 10:23:28;;;;;;;65.73;47.87;;;;;;;11.48;58.53;98943.10;123427;1102;65007;-77
2021/03/04 10:25:54;;;;;;;60.57;42.53;;;;;;;11.58;58.25;98938.81;123451;1102;64894;-79
2021/03/04 10:28:21;;;;;;;59.70;42.07;;;;;;;11.63;58.47;98934.84;123784;1102;64953;-77
2021/03/04 10:30:47;;;;;;;55.90;40.90;;;;;;;11.72;58.27;98935.17;123719;1102;64883;-80
2021/03/04 10:33:14;;;;;;;58.10;43.43;;;;;;;11.77;58.68;98933.87;123802;1102;64908;-77
2021/03/04 10:35:40;;;;;;;58.00;41.83;;;;;;;11.90;58.24;98924.97;123415;1102;64886;-77
2021/03/04 10:38:07;;;;;;;56.85;43.05;;;;;;;12.06;58.30;98923.75;123394;1102;64847;-79
2021/03/04 10:40:34;;;;;;;51.57;38.40;;;;;;;12.26;56.64;98924.91;123780;1102;64943;-78
2021/03/04 10:43:01;;;;;;;56.53;39.73;;;;;;;12.34;54.92;98923.49;123450;1102;64985;-79
2021/03/04 10:45:27;;;;;;;53.50;40.50;;;;;;;12.34;56.61;98915.48;123816;1102;64939;-78
2021/03/04 10:47:53;;;;;;;50.30;39.37;;;;;;;12.52;57.54;98914.92;123769;1101;64897;-77
2021/03/04 10:50:22;;;;;;;51.90;40.33;;;;;;;12.63;56.48;98907.91;123816;1101;64907;-78
2021/03/04 10:52:48;;;;;;;56.17;42.43;;;;;;;12.68;55.83;98922.62;123823;1101;65006;-78
2021/03/04 10:55:16;;;;;;;58.27;42.63;;;;;;;12.57;55.67;98913.73;123544;1102;64993;-79
2021/03/04 10:57:43;;;;;;;57.87;41.70;;;;;;;12.49;55.58;98909.82;123760;1102;64982;-79
2021/03/04 11:00:12;;;;;;;54.33;41.53;;;;;;;12.45;55.89;98905.70;123773;1102;64885;-79
2021/03/04 11:02:39;;;;;;;54.27;41.37;;;;;;;12.43;56.01;98906.78;123817;1102;64911;-80
2021/03/04 11:05:07;;;;;;;58.80;42.67;;;;;;;12.38;56.72;98896.43;123819;1101;65074;-78
2021/03/04 11:07:34;;;;;;;56.83;41.60;;;;;;;12.35;55.79;98893.12;123789;1102;64918;-78
2021/03/04 11:10:03;;;;;;;57.97;42.03;;;;;;;12.30;56.65;98894.34;123825;1102;64904;-78
2021/03/04 11:12:30;;;;;;;54.33;39.80;;;;;;;12.29;56.25;98884.59;123845;1102;64930;-78
2021/03/04 11:14:58;;;;;;;52.97;40.00;;;;;;;12.34;55.99;98886.92;123776;1101;64937;-78
2021/03/04 11:17:25;;;;;;;57.50;42.80;;;;;;;12.39;56.69;98886.59;123789;1102;64930;-78
2021/03/04 11:19:51;;;;;;;53.23;39.67;;;;;;;12.45;55.97;98888.78;123798;1101;64991;-78
2021/03/04 11:22:18;;;;;;;52.37;40.00;;;;;;;12.40;55.40;98888.28;123734;1102;64854;-78
2021/03/04 11:24:48;;;;;;;53.30;40.90;;;;;;;12.34;56.06;98873.56;123801;1102;64879;-79